Time;durP1;ratioP1;P1;durP2;ratioP2;P2;SDS_P1;SDS_P2;PMS_P1;PMS_P2;Temp;Humidity;BMP_temperature;BMP_pressure;BME280_temperature;BME280_humidity;BME280_pressure;Samples;Min_cycle;Max_cycle;Signal;HPM_P1;HPM_P2
2022/05/09 00:01:44;;;;;;;;;;;15.10;99.90;;;;;;5091590;28;19912;-70
2022/05/09 00:04:09;;;;;;;;;;;15.10;99.90;;;;;;5089714;28;19912;-70
2022/05/09 00:06:35;;;;;;;;;;;15.00;99.90;;;;;;5091414;28;19912;-69
2022/05/09 00:09:01;;;;;;;;;;;15.00;99.90;;;;;;5091101;28;19923;-70
2022/05/09 00:11:26;;;;;;;;;;;14.90;99.90;;;;;;5091277;28;19916;-70
2022/05/09 00:13:52;;;;;;;;;;;14.80;99.90;;;;;;5091190;28;20509;-69
2022/05/09 00:16:18;;;;;;;;;;;14.80;99.90;;;;;;5091228;28;19919;-70
2022/05/09 00:18:43;;;;;;;;;;;14.70;99.90;;;;;;5090953;28;19924;-70
2022/05/09 00:21:09;;;;;;;;;;;14.70;99.90;;;;;;5091055;28;19919;-69
2022/05/09 00:23:34;;;;;;;;;;;14.70;99.90;;;;;;5090998;28;20284;-69
2022/05/09 00:26:03;;;;;;;;;;;14.70;99.90;;;;;;5090812;28;19916;-69
2022/05/09 00:28:29;;;;;;;;;;;14.70;99.90;;;;;;5090925;28;19947;-70
2022/05/09 00:30:55;;;;;;;;;;;14.70;99.90;;;;;;5090909;28;19911;-69
2022/05/09 00:33:20;;;;;;;;;;;14.60;99.90;;;;;;5090823;28;20333;-70
2022/05/09 00:35:46;;;;;;;;;;;14.50;99.90;;;;;;5090943;28;19916;-69
2022/05/09 00:38:11;;;;;;;;;;;14.50;99.90;;;;;;5090762;28;19948;-69
2022/05/09 00:40:38;;;;;;;;;;;14.50;99.90;;;;;;5092409;28;20281;-71
2022/05/09 00:43:23;;;;;;;;;;;14.50;99.90;;;;;;5095077;28;19919;-70
2022/05/09 00:45:48;;;;;;;;;;;14.50;99.90;;;;;;5094409;28;20372;-71
2022/05/09 00:48:14;;;;;;;;;;;14.40;99.90;;;;;;5094838;28;19912;-70
2022/05/09 00:50:40;;;;;;;;;;;14.30;99.90;;;;;;5094943;28;20166;-70
2022/05/09 00:53:07;;;;;;;;;;;14.70;99.90;;;;;;5094946;28;19942;-70
2022/05/09 00:55:47;;;;;;;;;;;14.20;99.90;;;;;;5094557;28;19913;-69
2022/05/09 00:58:21;;;;;;;;;;;14.30;99.90;;;;;;5094472;28;20364;-69
2022/05/09 01:00:47;;;;;;;;;;;14.30;99.90;;;;;;5094522;28;19908;-69
2022/05/09 01:03:27;;;;;;;;;;;14.30;99.90;;;;;;5094303;28;19912;-70
2022/05/09 01:05:52;;;;;;;;;;;14.20;99.90;;;;;;5094266;28;19915;-69
2022/05/09 01:08:19;;;;;;;;;;;14.10;99.90;;;;;;5092933;28;20384;-70
2022/05/09 01:10:45;;;;;;;;;;;14.10;99.90;;;;;;5094224;28;19956;-70
2022/05/09 01:13:12;;;;;;;;;;;14.10;99.90;;;;;;5094461;28;19927;-70
2022/05/09 01:15:39;;;;;;;;;;;14.10;99.90;;;;;;5094198;28;20002;-69
2022/05/09 01:18:06;;;;;;;;;;;14.20;99.90;;;;;;5094242;28;20289;-70
2022/05/09 01:20:32;;;;;;;;;;;14.10;99.90;;;;;;5094357;28;19999;-70
2022/05/09 01:22:57;;;;;;;;;;;14.10;99.90;;;;;;5093881;28;19951;-70
2022/05/09 01:25:23;;;;;;;;;;;14.10;99.90;;;;;;5092552;28;19938;-70
2022/05/09 01:27:49;;;;;;;;;;;14.10;99.90;;;;;;5092685;28;20003;-70
2022/05/09 01:30:16;;;;;;;;;;;14.20;99.90;;;;;;5093601;28;19923;-70
2022/05/09 01:32:48;;;;;;;;;;;14.10;99.90;;;;;;5094199;28;20003;-70
2022/05/09 01:35:27;;;;;;;;;;;14.10;99.90;;;;;;5093587;28;19928;-70
2022/05/09 01:37:55;;;;;;;;;;;14.00;99.90;;;;;;5092511;28;20360;-69
2022/05/09 01:40:20;;;;;;;;;;;14.00;99.90;;;;;;5093779;28;20002;-69
2022/05/09 01:42:46;;;;;;;;;;;13.90;99.90;;;;;;5092312;28;20336;-69
2022/05/09 01:45:12;;;;;;;;;;;13.90;99.90;;;;;;5092124;28;19916;-70
2022/05/09 01:50:23;;;;;;;;;;;13.80;99.90;;;;;;5093683;28;20276;-70
2022/05/09 01:52:48;;;;;;;;;;;13.70;99.90;;;;;;5093011;28;20014;-70
2022/05/09 01:55:14;;;;;;;;;;;13.70;99.90;;;;;;5093321;28;20654;-70
2022/05/09 01:57:39;;;;;;;;;;;13.70;99.90;;;;;;5092186;28;19912;-70
2022/05/09 02:00:06;;;;;;;;;;;13.70;99.90;;;;;;5093459;28;20326;-69
2022/05/09 02:02:32;;;;;;;;;;;13.70;99.90;;;;;;5092071;28;19916;-70
2022/05/09 02:04:57;;;;;;;;;;;13.70;99.90;;;;;;5092973;28;19935;-70
2022/05/09 02:07:23;;;;;;;;;;;13.70;99.90;;;;;;5093468;28;19917;-70
2022/05/09 02:09:49;;;;;;;;;;;13.60;99.90;;;;;;5093176;28;19915;-70
2022/05/09 02:12:15;;;;;;;;;;;13.60;99.90;;;;;;5093344;28;20322;-70
2022/05/09 02:14:41;;;;;;;;;;;13.60;99.90;;;;;;5091719;28;19912;-70
2022/05/09 02:17:07;;;;;;;;;;;13.60;99.90;;;;;;5091826;28;19927;-70
2022/05/09 02:19:34;;;;;;;;;;;13.40;99.90;;;;;;5092723;28;20347;-70
2022/05/09 02:22:00;;;;;;;;;;;13.40;99.90;;;;;;5093071;28;19917;-70
2022/05/09 02:24:27;;;;;;;;;;;13.40;99.90;;;;;;5092587;28;19924;-70
2022/05/09 02:26:53;;;;;;;;;;;13.40;99.90;;;;;;5092863;28;19923;-70
2022/05/09 02:29:18;;;;;;;;;;;13.30;99.90;;;;;;5092963;28;19984;-70
2022/05/09 02:31:44;;;;;;;;;;;13.30;99.90;;;;;;5091309;28;20027;-69
2022/05/09 02:34:09;;;;;;;;;;;13.30;99.90;;;;;;5092855;28;19911;-70
2022/05/09 02:36:35;;;;;;;;;;;13.30;99.90;;;;;;5092580;28;19916;-70
2022/05/09 02:39:00;;;;;;;;;;;13.30;99.90;;;;;;5092398;28;19920;-69
2022/05/09 02:41:26;;;;;;;;;;;13.20;99.90;;;;;;5092308;28;19920;-69
2022/05/09 02:43:51;;;;;;;;;;;13.20;99.90;;;;;;5092550;28;19908;-69
2022/05/09 02:46:17;;;;;;;;;;;13.20;99.90;;;;;;5092261;28;19931;-69
2022/05/09 02:48:42;;;;;;;;;;;13.20;99.90;;;;;;5092298;28;19930;-69
2022/05/09 02:51:08;;;;;;;;;;;13.30;99.90;;;;;;5092113;28;19986;-69
2022/05/09 02:53:34;;;;;;;;;;;13.30;99.90;;;;;;5092489;28;20003;-69
2022/05/09 02:56:00;;;;;;;;;;;13.40;99.90;;;;;;5092351;28;19987;-69
2022/05/09 02:58:26;;;;;;;;;;;13.40;99.90;;;;;;5092181;28;20378;-69
2022/05/09 03:00:51;;;;;;;;;;;13.40;99.90;;;;;;5091920;28;20018;-68
2022/05/09 03:06:01;;;;;;;;;;;13.50;99.90;;;;;;5091838;28;20448;-69
2022/05/09 03:08:26;;;;;;;;;;;13.40;99.90;;;;;;5090754;28;19962;-69
2022/05/09 03:10:52;;;;;;;;;;;13.40;99.90;;;;;;5091864;28;20458;-69
2022/05/09 03:13:17;;;;;;;;;;;13.40;99.90;;;;;;5091965;28;20280;-68
2022/05/09 03:15:44;;;;;;;;;;;13.40;99.90;;;;;;5091849;28;19957;-68
2022/05/09 03:18:11;;;;;;;;;;;13.40;99.90;;;;;;5091964;28;19924;-69
2022/05/09 03:20:37;;;;;;;;;;;13.40;99.90;;;;;;5091832;28;20299;-68
2022/05/09 03:23:04;;;;;;;;;;;13.40;99.90;;;;;;5092256;28;19963;-70
2022/05/09 03:25:30;;;;;;;;;;;13.40;99.90;;;;;;5091613;28;19968;-68
2022/05/09 03:27:56;;;;;;;;;;;13.40;99.90;;;;;;5091601;28;19920;-70
2022/05/09 03:30:21;;;;;;;;;;;13.40;99.90;;;;;;5091516;28;19916;-70
2022/05/09 03:32:47;;;;;;;;;;;13.50;99.90;;;;;;5091560;28;20007;-69
2022/05/09 03:35:14;;;;;;;;;;;13.60;99.90;;;;;;5091443;28;19923;-69
2022/05/09 03:37:40;;;;;;;;;;;13.60;99.90;;;;;;5091954;28;20344;-68
2022/05/09 03:40:06;;;;;;;;;;;13.60;99.90;;;;;;5091522;28;19919;-68
2022/05/09 03:42:32;;;;;;;;;;;13.60;99.90;;;;;;5090131;28;20370;-69
2022/05/09 03:44:57;;;;;;;;;;;13.70;99.90;;;;;;5091436;28;19951;-68
2022/05/09 03:47:23;;;;;;;;;;;13.60;99.90;;;;;;5091643;28;19919;-69
2022/05/09 03:49:50;;;;;;;;;;;13.70;99.90;;;;;;5090067;28;19912;-69
2022/05/09 03:52:16;;;;;;;;;;;13.70;99.90;;;;;;5091616;28;19919;-69
2022/05/09 03:54:41;;;;;;;;;;;13.60;99.90;;;;;;5091447;28;20000;-69
2022/05/09 03:57:07;;;;;;;;;;;13.70;99.90;;;;;;5091636;28;19916;-68
2022/05/09 03:59:32;;;;;;;;;;;13.70;99.90;;;;;;5091400;28;20265;-68
2022/05/09 04:01:58;;;;;;;;;;;13.70;99.90;;;;;;5091328;28;19993;-68
2022/05/09 04:04:23;;;;;;;;;;;13.70;99.90;;;;;;5091429;28;19924;-68
2022/05/09 04:06:52;;;;;;;;;;;13.70;99.90;;;;;;5091256;28;19934;-68
2022/05/09 04:09:18;;;;;;;;;;;13.70;99.90;;;;;;5091562;28;19918;-68
2022/05/09 04:11:45;;;;;;;;;;;13.60;99.90;;;;;;5091120;28;20010;-68
2022/05/09 04:14:10;;;;;;;;;;;13.60;99.90;;;;;;5089848;28;19935;-67
2022/05/09 04:16:51;;;;;;;;;;;13.60;99.90;;;;;;5094058;28;20372;-68
2022/05/09 04:19:17;;;;;;;;;;;13.60;99.90;;;;;;5094934;28;20369;-69
2022/05/09 04:21:43;;;;;;;;;;;13.70;99.90;;;;;;5093576;28;20026;-69
2022/05/09 04:24:08;;;;;;;;;;;13.60;99.90;;;;;;5095050;28;19914;-68
2022/05/09 04:26:34;;;;;;;;;;;13.70;99.90;;;;;;5095100;28;19955;-68
2022/05/09 04:29:00;;;;;;;;;;;13.70;99.90;;;;;;5095053;28;19916;-68
2022/05/09 04:31:27;;;;;;;;;;;13.70;99.90;;;;;;5094904;28;20289;-70
2022/05/09 04:33:52;;;;;;;;;;;13.70;99.90;;;;;;5094854;28;19909;-69
2022/05/09 04:36:18;;;;;;;;;;;13.80;99.90;;;;;;5093346;28;19923;-70
2022/05/09 04:38:45;;;;;;;;;;;13.90;99.90;;;;;;5095028;28;19908;-69
2022/05/09 04:41:13;;;;;;;;;;;14.00;99.90;;;;;;5093412;28;20375;-70
2022/05/09 04:43:38;;;;;;;;;;;14.10;99.90;;;;;;5094606;28;20310;-69
2022/05/09 04:46:05;;;;;;;;;;;14.10;99.90;;;;;;5094867;28;19912;-70
2022/05/09 04:48:31;;;;;;;;;;;14.10;99.90;;;;;;5094628;28;20406;-69
2022/05/09 04:50:57;;;;;;;;;;;14.20;99.90;;;;;;5094564;28;20003;-69
2022/05/09 04:53:23;;;;;;;;;;;14.20;99.90;;;;;;5094600;28;19962;-69
2022/05/09 04:55:48;;;;;;;;;;;14.30;99.90;;;;;;5094508;28;19913;-70
2022/05/09 04:58:15;;;;;;;;;;;14.40;99.90;;;;;;5094527;28;19916;-69
2022/05/09 05:00:41;;;;;;;;;;;14.40;99.90;;;;;;5094971;28;19909;-71
2022/05/09 05:03:06;;;;;;;;;;;14.30;99.90;;;;;;5093195;28;19916;-69
2022/05/09 05:05:32;;;;;;;;;;;14.20;99.90;;;;;;5094217;28;19986;-70
2022/05/09 05:07:58;;;;;;;;;;;14.10;99.90;;;;;;5094728;28;19913;-70
2022/05/09 05:10:24;;;;;;;;;;;14.10;99.90;;;;;;5094279;28;19934;-70
2022/05/09 05:12:49;;;;;;;;;;;14.00;99.90;;;;;;5094451;28;20387;-70
2022/05/09 05:15:15;;;;;;;;;;;14.00;99.90;;;;;;5094248;28;19946;-70
2022/05/09 05:17:41;;;;;;;;;;;13.90;99.90;;;;;;5094411;28;19965;-70
2022/05/09 05:20:09;;;;;;;;;;;13.90;99.90;;;;;;5093943;28;19924;-70
2022/05/09 05:22:35;;;;;;;;;;;13.90;99.90;;;;;;5093848;28;20019;-69
2022/05/09 05:25:01;;;;;;;;;;;13.90;99.90;;;;;;5093824;28;19916;-70
2022/05/09 05:27:26;;;;;;;;;;;13.70;99.90;;;;;;5092906;28;19963;-70
2022/05/09 05:29:56;;;;;;;;;;;13.70;99.90;;;;;;5093922;28;19908;-70
2022/05/09 05:32:23;;;;;;;;;;;13.70;99.90;;;;;;5093899;28;19916;-69
2022/05/09 05:34:49;;;;;;;;;;;13.70;99.90;;;;;;5093582;28;20360;-70
2022/05/09 05:37:16;;;;;;;;;;;13.70;99.90;;;;;;5094133;28;20026;-70
2022/05/09 05:39:42;;;;;;;;;;;13.70;99.90;;;;;;5093664;28;19912;-69
2022/05/09 05:42:08;;;;;;;;;;;13.80;99.90;;;;;;5093959;28;19920;-70
2022/05/09 05:44:34;;;;;;;;;;;13.90;99.90;;;;;;5093875;28;19920;-70
2022/05/09 05:47:04;;;;;;;;;;;14.00;99.90;;;;;;5092245;28;20303;-70
2022/05/09 05:49:29;;;;;;;;;;;14.00;99.90;;;;;;5092034;28;19935;-69
2022/05/09 05:51:59;;;;;;;;;;;14.00;99.90;;;;;;5093605;28;19971;-70
2022/05/09 05:54:24;;;;;;;;;;;14.00;99.90;;;;;;5093334;28;19908;-70
2022/05/09 05:56:49;;;;;;;;;;;14.00;99.90;;;;;;5092099;28;19916;-70
2022/05/09 05:59:15;;;;;;;;;;;14.20;99.90;;;;;;5093202;28;20330;-70
2022/05/09 06:01:40;;;;;;;;;;;14.40;99.90;;;;;;5093354;28;19920;-70
2022/05/09 06:04:06;;;;;;;;;;;14.70;99.90;;;;;;5093151;28;20455;-70
2022/05/09 06:06:31;;;;;;;;;;;15.00;99.90;;;;;;5093000;28;19931;-69
2022/05/09 06:08:57;;;;;;;;;;;15.30;99.90;;;;;;5091698;28;19908;-69
2022/05/09 06:11:22;;;;;;;;;;;15.40;99.90;;;;;;5093066;28;19969;-70
2022/05/09 06:13:48;;;;;;;;;;;15.50;99.90;;;;;;5092945;28;19908;-71
2022/05/09 06:16:13;;;;;;;;;;;15.70;99.90;;;;;;5093005;28;19927;-71
2022/05/09 06:18:39;;;;;;;;;;;15.80;99.90;;;;;;5092693;28;20302;-71
2022/05/09 06:21:04;;;;;;;;;;;15.90;99.90;;;;;;5093020;28;19915;-70
2022/05/09 06:23:30;;;;;;;;;;;16.00;99.90;;;;;;5093023;28;20338;-70
2022/05/09 06:25:56;;;;;;;;;;;16.10;99.90;;;;;;5091095;28;20288;-70
2022/05/09 06:28:23;;;;;;;;;;;16.10;99.90;;;;;;5091171;28;19920;-70
2022/05/09 06:30:49;;;;;;;;;;;16.30;99.90;;;;;;5091185;28;19908;-70
2022/05/09 06:33:22;;;;;;;;;;;16.20;99.90;;;;;;5092382;28;20015;-71
2022/05/09 06:35:47;;;;;;;;;;;16.30;99.90;;;;;;5092623;28;20003;-71
2022/05/09 06:38:17;;;;;;;;;;;16.30;99.90;;;;;;5091773;28;20353;-70
2022/05/09 06:40:42;;;;;;;;;;;16.40;99.90;;;;;;5092539;28;19912;-70
2022/05/09 06:43:08;;;;;;;;;;;16.60;99.90;;;;;;5092742;28;19977;-70
2022/05/09 06:45:34;;;;;;;;;;;16.80;99.90;;;;;;5092488;28;19938;-71
2022/05/09 06:47:59;;;;;;;;;;;16.80;99.90;;;;;;5092887;28;19942;-71
2022/05/09 06:50:31;;;;;;;;;;;16.90;99.90;;;;;;5092098;28;19962;-70
2022/05/09 06:52:57;;;;;;;;;;;16.90;99.90;;;;;;5092623;28;19985;-70
2022/05/09 06:55:22;;;;;;;;;;;17.10;99.90;;;;;;5092075;28;19909;-71
2022/05/09 06:57:49;;;;;;;;;;;17.20;99.90;;;;;;5092483;28;19983;-70
2022/05/09 07:00:17;;;;;;;;;;;17.30;99.90;;;;;;5091976;28;19908;-71
2022/05/09 07:02:43;;;;;;;;;;;17.20;99.90;;;;;;5091964;28;19965;-70
2022/05/09 07:05:09;;;;;;;;;;;17.20;99.90;;;;;;5091817;28;19912;-70
2022/05/09 07:07:35;;;;;;;;;;;17.10;99.90;;;;;;5090726;28;19916;-71
2022/05/09 07:10:01;;;;;;;;;;;17.00;99.90;;;;;;5091915;28;19938;-71
2022/05/09 07:12:26;;;;;;;;;;;17.10;99.90;;;;;;5092134;28;20015;-72
2022/05/09 07:14:52;;;;;;;;;;;17.00;99.90;;;;;;5090372;28;19912;-71
2022/05/09 07:17:17;;;;;;;;;;;17.10;99.80;;;;;;5092190;28;19923;-71
2022/05/09 07:19:44;;;;;;;;;;;17.30;99.60;;;;;;5090185;28;19925;-71
2022/05/09 07:22:10;;;;;;;;;;;17.40;99.40;;;;;;5091909;28;20351;-70
2022/05/09 07:24:35;;;;;;;;;;;17.50;99.10;;;;;;5091578;28;19919;-70
2022/05/09 07:27:01;;;;;;;;;;;17.60;98.50;;;;;;5091779;28;19920;-70
2022/05/09 07:29:26;;;;;;;;;;;17.70;98.50;;;;;;5091628;28;19915;-70
2022/05/09 07:31:52;;;;;;;;;;;17.70;98.20;;;;;;5091309;28;20457;-70
2022/05/09 07:34:17;;;;;;;;;;;17.90;98.00;;;;;;5091424;28;19930;-70
2022/05/09 07:36:43;;;;;;;;;;;18.00;97.90;;;;;;5091680;28;19920;-71
2022/05/09 07:39:08;;;;;;;;;;;18.20;97.30;;;;;;5091481;28;19951;-70
2022/05/09 07:41:34;;;;;;;;;;;18.30;96.90;;;;;;5091581;28;19981;-71
2022/05/09 07:43:59;;;;;;;;;;;18.40;96.70;;;;;;5091446;28;19959;-70
2022/05/09 07:46:25;;;;;;;;;;;18.30;95.20;;;;;;5091398;28;20015;-70
2022/05/09 07:48:52;;;;;;;;;;;18.30;95.10;;;;;;5091330;28;19912;-70
2022/05/09 07:51:18;;;;;;;;;;;18.40;95.00;;;;;;5090709;28;19916;-70
2022/05/09 07:53:44;;;;;;;;;;;18.50;95.00;;;;;;5091297;28;20122;-71
2022/05/09 07:56:09;;;;;;;;;;;18.60;95.00;;;;;;5091291;28;19920;-71
2022/05/09 07:58:35;;;;;;;;;;;19.00;94.70;;;;;;5091314;28;19912;-71
2022/05/09 08:01:02;;;;;;;;;;;19.00;93.90;;;;;;5091165;28;20291;-71
2022/05/09 08:03:31;;;;;;;;;;;19.10;93.70;;;;;;5089922;28;20203;-70
2022/05/09 08:06:02;;;;;;;;;;;19.00;93.40;;;;;;5090873;28;19923;-70
2022/05/09 08:08:31;;;;;;;;;;;18.80;93.60;;;;;;5091545;28;19912;-70
2022/05/09 08:10:58;;;;;;;;;;;18.80;93.00;;;;;;5091089;28;19908;-69
2022/05/09 08:13:25;;;;;;;;;;;19.00;92.90;;;;;;5091351;28;19956;-70
2022/05/09 08:15:51;;;;;;;;;;;19.20;92.60;;;;;;5091214;28;19912;-70
2022/05/09 08:18:16;;;;;;;;;;;19.10;92.00;;;;;;5091151;28;20253;-69
2022/05/09 08:20:45;;;;;;;;;;;19.10;92.80;;;;;;5091062;28;19916;-70
2022/05/09 08:23:13;;;;;;;;;;;19.10;93.20;;;;;;5091542;28;19916;-70
2022/05/09 08:25:41;;;;;;;;;;;19.10;93.30;;;;;;5090881;28;20318;-70
2022/05/09 08:28:07;;;;;;;;;;;19.00;93.60;;;;;;5089553;28;20381;-70
2022/05/09 08:30:34;;;;;;;;;;;18.60;93.60;;;;;;5090749;28;19912;-70
2022/05/09 08:33:00;;;;;;;;;;;18.70;93.40;;;;;;5089585;28;19920;-70
2022/05/09 08:35:26;;;;;;;;;;;18.80;93.80;;;;;;5090770;28;20018;-70
2022/05/09 08:37:51;;;;;;;;;;;18.60;93.40;;;;;;5091361;28;20294;-69
2022/05/09 08:40:20;;;;;;;;;;;18.50;92.90;;;;;;5090763;28;19962;-71
2022/05/09 08:42:52;;;;;;;;;;;18.70;92.90;;;;;;5090852;28;19970;-70
2022/05/09 08:45:23;;;;;;;;;;;19.10;91.60;;;;;;5090749;28;20396;-69
2022/05/09 08:48:00;;;;;;;;;;;19.20;91.20;;;;;;5090807;28;19908;-69
2022/05/09 08:50:33;;;;;;;;;;;19.50;90.30;;;;;;5089482;28;19912;-70
2022/05/09 08:53:12;;;;;;;;;;;19.80;90.20;;;;;;5090737;28;19987;-70
2022/05/09 08:55:39;;;;;;;;;;;20.10;87.90;;;;;;5089497;28;19920;-71
2022/05/09 08:58:11;;;;;;;;;;;20.50;86.60;;;;;;5090808;28;19943;-70
2022/05/09 09:00:37;;;;;;;;;;;20.80;85.30;;;;;;5089058;28;20370;-69
2022/05/09 09:03:22;;;;;;;;;;;20.90;84.00;;;;;;5094157;28;20055;-69
2022/05/09 09:05:50;;;;;;;;;;;20.80;82.20;;;;;;5094122;28;19919;-69
2022/05/09 09:08:30;;;;;;;;;;;20.80;81.60;;;;;;5094538;28;19970;-69
2022/05/09 09:11:03;;;;;;;;;;;20.90;81.00;;;;;;5094211;28;20413;-68
2022/05/09 09:13:47;;;;;;;;;;;21.00;79.60;;;;;;5094275;28;20370;-69
2022/05/09 09:16:18;;;;;;;;;;;20.90;78.50;;;;;;5094356;28;20279;-70
2022/05/09 09:18:55;;;;;;;;;;;20.80;80.00;;;;;;5093969;28;19973;-71
2022/05/09 09:21:36;;;;;;;;;;;20.90;76.00;;;;;;5094021;28;19908;-72
2022/05/09 09:24:20;;;;;;;;;;;21.00;76.50;;;;;;5094342;28;19926;-72
2022/05/09 09:26:45;;;;;;;;;;;20.80;74.70;;;;;;5093812;28;20228;-72
2022/05/09 09:29:34;;;;;;;;;;;20.70;75.70;;;;;;5094095;28;19927;-69
2022/05/09 09:32:13;;;;;;;;;;;20.60;74.60;;;;;;5085136;28;20433;-69
2022/05/09 09:34:42;;;;;;;;;;;20.40;75.90;;;;;;5094048;28;20303;-69
2022/05/09 09:37:19;;;;;;;;;;;20.30;74.90;;;;;;5093574;28;19916;-70
2022/05/09 09:39:44;;;;;;;;;;;20.30;74.30;;;;;;5094077;28;19981;-70
2022/05/09 09:42:10;;;;;;;;;;;20.30;74.30;;;;;;5093524;28;20367;-72
2022/05/09 09:44:38;;;;;;;;;;;20.40;74.50;;;;;;5092322;28;20295;-72
2022/05/09 09:47:03;;;;;;;;;;;20.60;71.70;;;;;;5093392;28;19939;-71
2022/05/09 09:49:29;;;;;;;;;;;20.80;71.50;;;;;;5093735;28;19974;-70
2022/05/09 09:51:55;;;;;;;;;;;21.00;70.40;;;;;;5093165;28;19908;-70
2022/05/09 09:54:22;;;;;;;;;;;21.00;68.70;;;;;;5093685;28;19946;-69
2022/05/09 09:56:48;;;;;;;;;;;20.90;68.00;;;;;;5093234;28;19916;-69
2022/05/09 09:59:13;;;;;;;;;;;21.00;66.80;;;;;;5093470;28;19920;-69
2022/05/09 10:01:39;;;;;;;;;;;21.30;66.30;;;;;;5093067;28;19920;-68
2022/05/09 10:04:12;;;;;;;;;;;21.50;65.80;;;;;;5093623;28;19916;-68
2022/05/09 10:06:59;;;;;;;;;;;21.50;65.70;;;;;;5093086;28;19912;-69
2022/05/09 10:09:26;;;;;;;;;;;21.60;64.60;;;;;;5093417;28;19916;-69
2022/05/09 10:11:51;;;;;;;;;;;21.70;64.80;;;;;;5092922;28;19908;-70
2022/05/09 10:14:33;;;;;;;;;;;21.90;62.80;;;;;;5092776;28;19927;-70
2022/05/09 10:17:16;;;;;;;;;;;21.90;63.60;;;;;;5092993;28;19909;-69
2022/05/09 10:19:42;;;;;;;;;;;22.10;62.90;;;;;;5092763;28;20022;-69
2022/05/09 10:24:57;;;;;;;;;;;22.40;61.60;;;;;;5093150;28;19927;-69
2022/05/09 10:27:22;;;;;;;;;;;22.60;59.90;;;;;;5092556;28;20330;-68
2022/05/09 10:29:50;;;;;;;;;;;22.70;59.00;;;;;;5093109;28;19920;-69
2022/05/09 10:32:20;;;;;;;;;;;22.70;59.60;;;;;;5092034;28;21528;-69
2022/05/09 10:34:56;;;;;;;;;;;22.90;58.30;;;;;;5093068;28;19912;-70
2022/05/09 10:37:21;;;;;;;;;;;23.20;57.70;;;;;;5092642;28;19916;-70
2022/05/09 10:39:51;;;;;;;;;;;23.40;57.30;;;;;;5092975;28;20360;-70
2022/05/09 10:42:21;;;;;;;;;;;23.60;56.20;;;;;;5091257;28;20351;-69
2022/05/09 10:44:52;;;;;;;;;;;23.60;54.30;;;;;;5092888;28;19916;-69
2022/05/09 10:47:25;;;;;;;;;;;23.30;53.50;;;;;;5092381;28;20007;-70
2022/05/09 10:49:50;;;;;;;;;;;23.40;53.50;;;;;;5092735;28;19912;-71
2022/05/09 10:52:16;;;;;;;;;;;23.60;53.00;;;;;;5090844;28;19912;-69
2022/05/09 10:54:47;;;;;;;;;;;23.50;53.50;;;;;;5090896;28;19951;-69
2022/05/09 10:57:36;;;;;;;;;;;23.50;53.00;;;;;;5090808;28;19969;-70
2022/05/09 11:00:24;;;;;;;;;;;23.60;54.10;;;;;;5092547;28;20023;-71
2022/05/09 11:03:03;;;;;;;;;;;23.60;53.20;;;;;;5083583;28;19961;-70
2022/05/09 11:05:39;;;;;;;;;;;23.30;53.20;;;;;;5092313;28;19916;-71
2022/05/09 11:08:11;;;;;;;;;;;23.30;53.50;;;;;;5090530;28;20355;-71
2022/05/09 11:10:42;;;;;;;;;;;23.30;53.60;;;;;;5092072;28;19919;-71
2022/05/09 11:13:26;;;;;;;;;;;23.30;54.00;;;;;;5091884;28;19969;-71
2022/05/09 11:15:55;;;;;;;;;;;23.40;53.60;;;;;;5092102;28;19916;-71
2022/05/09 11:18:39;;;;;;;;;;;23.60;53.30;;;;;;5091553;28;19912;-71
2022/05/09 11:21:31;;;;;;;;;;;23.80;53.40;;;;;;5091860;28;19999;-71
2022/05/09 11:24:22;;;;;;;;;;;23.70;52.60;;;;;;5091811;28;19908;-71
2022/05/09 11:26:51;;;;;;;;;;;23.60;53.20;;;;;;5091380;28;20365;-71
2022/05/09 11:29:22;;;;;;;;;;;23.40;52.60;;;;;;5091859;28;19908;-71
2022/05/09 11:32:00;;;;;;;;;;;23.20;53.10;;;;;;5091769;28;19916;-72
2022/05/09 11:34:40;;;;;;;;;;;23.20;53.00;;;;;;5091933;28;19920;-71
2022/05/09 11:37:08;;;;;;;;;;;23.10;52.80;;;;;;5091601;28;19923;-72
2022/05/09 11:39:55;;;;;;;;;;;23.00;52.90;;;;;;5091535;28;20387;-72
2022/05/09 11:45:30;;;;;;;;;;;22.90;52.60;;;;;;5091960;28;19923;-72
2022/05/09 11:48:05;;;;;;;;;;;23.00;53.00;;;;;;5090997;28;19916;-72
2022/05/09 11:50:30;;;;;;;;;;;22.70;52.40;;;;;;5091361;28;19916;-72
2022/05/09 11:52:56;;;;;;;;;;;22.40;52.60;;;;;;5091225;28;19957;-71
2022/05/09 11:55:23;;;;;;;;;;;22.20;51.40;;;;;;5091476;28;20015;-71
2022/05/09 11:57:56;;;;;;;;;;;22.10;51.30;;;;;;5091250;28;19915;-71
2022/05/09 12:00:25;;;;;;;;;;;21.80;51.50;;;;;;5090220;28;19990;-72
2022/05/09 12:02:53;;;;;;;;;;;21.80;52.10;;;;;;5091362;28;19908;-71
2022/05/09 12:05:31;;;;;;;;;;;21.80;50.90;;;;;;5090980;28;19947;-71
2022/05/09 12:07:56;;;;;;;;;;;21.80;50.70;;;;;;5091055;28;20002;-71
2022/05/09 12:10:28;;;;;;;;;;;21.80;51.00;;;;;;5089850;28;20015;-71
2022/05/09 12:13:04;;;;;;;;;;;22.00;51.20;;;;;;5091081;28;19962;-71
2022/05/09 12:15:29;;;;;;;;;;;21.90;51.40;;;;;;5090983;28;19916;-71
2022/05/09 12:17:57;;;;;;;;;;;21.80;51.50;;;;;;5089784;28;19937;-71
2022/05/09 12:20:27;;;;;;;;;;;21.70;51.50;;;;;;5090964;28;19935;-71
2022/05/09 12:23:03;;;;;;;;;;;21.50;51.90;;;;;;5089814;28;19943;-71
2022/05/09 12:25:36;;;;;;;;;;;21.40;51.50;;;;;;5090858;28;20375;-72
2022/05/09 12:28:20;;;;;;;;;;;21.40;52.10;;;;;;5090944;28;19943;-72
2022/05/09 12:30:48;;;;;;;;;;;21.40;51.70;;;;;;5090886;28;19913;-72
2022/05/09 12:33:19;;;;;;;;;;;21.40;52.10;;;;;;5091269;28;20286;-72
2022/05/09 12:35:45;;;;;;;;;;;21.30;52.20;;;;;;5089547;28;19916;-72
2022/05/09 12:38:12;;;;;;;;;;;21.10;52.20;;;;;;5093410;28;19919;-72
2022/05/09 12:40:37;;;;;;;;;;;21.00;52.70;;;;;;5094747;28;19916;-73
2022/05/09 12:43:03;;;;;;;;;;;20.90;52.50;;;;;;5094785;28;20390;-72
2022/05/09 12:45:29;;;;;;;;;;;20.90;52.60;;;;;;5093048;28;20394;-72
2022/05/09 12:47:55;;;;;;;;;;;20.70;53.40;;;;;;5094613;28;19908;-72
2022/05/09 12:50:27;;;;;;;;;;;20.40;54.50;;;;;;5094622;28;19912;-72
2022/05/09 12:52:54;;;;;;;;;;;20.30;54.80;;;;;;5093032;28;20279;-72
2022/05/09 12:58:20;;;;;;;;;;;20.40;54.60;;;;;;5094549;28;19920;-72
2022/05/09 13:00:46;;;;;;;;;;;20.30;54.90;;;;;;5094310;28;19912;-73
2022/05/09 13:03:12;;;;;;;;;;;20.10;55.00;;;;;;5094266;28;20240;-72
2022/05/09 13:05:40;;;;;;;;;;;20.00;55.20;;;;;;5092909;28;20385;-73
2022/05/09 13:08:06;;;;;;;;;;;20.00;54.80;;;;;;5094307;28;20363;-73
2022/05/09 13:10:41;;;;;;;;;;;20.00;55.40;;;;;;5094209;28;19916;-71
2022/05/09 13:13:07;;;;;;;;;;;20.00;55.20;;;;;;5094213;28;19908;-71
2022/05/09 13:15:33;;;;;;;;;;;19.80;55.40;;;;;;5093920;28;19916;-71
2022/05/09 13:18:06;;;;;;;;;;;19.70;55.90;;;;;;5093936;28;20375;-70
2022/05/09 13:20:36;;;;;;;;;;;19.70;56.50;;;;;;5092363;28;19924;-72
2022/05/09 13:23:05;;;;;;;;;;;19.50;57.00;;;;;;5092478;28;19935;-72
2022/05/09 13:25:50;;;;;;;;;;;19.30;56.80;;;;;;5092493;28;20021;-72
2022/05/09 13:28:19;;;;;;;;;;;19.30;56.70;;;;;;5094251;28;19912;-72
2022/05/09 13:30:55;;;;;;;;;;;19.20;56.70;;;;;;5094079;28;19912;-73
2022/05/09 13:33:22;;;;;;;;;;;19.20;57.20;;;;;;5092561;28;20381;-73
2022/05/09 13:35:50;;;;;;;;;;;19.00;57.50;;;;;;5092331;28;19912;-72
2022/05/09 13:38:18;;;;;;;;;;;19.00;57.90;;;;;;5094146;28;19965;-73
2022/05/09 13:40:44;;;;;;;;;;;19.00;57.60;;;;;;5093883;28;19912;-72
2022/05/09 13:43:12;;;;;;;;;;;18.90;57.80;;;;;;5092346;28;19919;-73
2022/05/09 13:45:38;;;;;;;;;;;18.90;57.90;;;;;;5093484;28;19916;-72
2022/05/09 13:48:08;;;;;;;;;;;18.90;58.20;;;;;;5091048;28;19942;-72
2022/05/09 13:50:35;;;;;;;;;;;18.90;57.40;;;;;;5093380;28;19955;-72
2022/05/09 13:53:05;;;;;;;;;;;18.90;57.60;;;;;;5093465;28;19908;-72
2022/05/09 13:55:32;;;;;;;;;;;18.80;57.40;;;;;;5093321;28;19919;-71
2022/05/09 13:57:58;;;;;;;;;;;18.70;57.70;;;;;;5092101;28;19935;-72
2022/05/09 14:00:33;;;;;;;;;;;18.60;57.80;;;;;;5093325;28;19922;-72
2022/05/09 14:03:00;;;;;;;;;;;18.60;58.70;;;;;;5093188;28;20322;-71
2022/05/09 14:05:27;;;;;;;;;;;18.50;58.40;;;;;;5091624;28;19916;-72
2022/05/09 14:07:59;;;;;;;;;;;18.50;59.10;;;;;;5093007;28;19912;-72
2022/05/09 14:10:24;;;;;;;;;;;18.50;58.20;;;;;;5091680;28;19912;-72
2022/05/09 14:12:51;;;;;;;;;;;18.40;58.30;;;;;;5093294;28;20378;-72
2022/05/09 14:15:30;;;;;;;;;;;18.40;57.90;;;;;;5092935;28;19913;-71
2022/05/09 14:17:55;;;;;;;;;;;18.30;58.00;;;;;;5093108;28;19908;-72
2022/05/09 14:20:33;;;;;;;;;;;18.20;58.50;;;;;;5092717;28;19947;-72
2022/05/09 14:22:59;;;;;;;;;;;18.20;59.20;;;;;;5091503;28;19908;-72
2022/05/09 14:31:18;;;;;;;;;;;18.00;59.00;;;;;;5092777;28;20003;-71
2022/05/09 14:33:44;;;;;;;;;;;17.80;59.50;;;;;;5091549;28;19938;-71
2022/05/09 14:36:28;;;;;;;;;;;17.90;59.10;;;;;;5092516;28;20011;-72
2022/05/09 14:38:55;;;;;;;;;;;17.90;58.50;;;;;;5092507;28;20064;-72
2022/05/09 14:41:36;;;;;;;;;;;17.90;58.50;;;;;;5092556;28;20394;-72
2022/05/09 14:44:20;;;;;;;;;;;17.90;58.20;;;;;;5092766;28;19912;-71